7B3 weather

Hampton Airfield
Hampton, New Hampshire, United States

Public forecast

Using degrees Fahrenheit for public forecast. Weather courtesy of forecast.io.

Closest aviation weather report (METAR) to Hampton Airfield

Closest report is Portsmouth International at Pease Airport, 6.9 nm (12.8 km) N. Retrieved 2019/10/17 23:21 UTC (34 minutes ago):

KPSM 172321Z 27009G17KT 10SM SCT027 BKN042 BKN080 09/05 A2912 RMK AO2A SLP864

Closest aviation forecast (TAF) to Hampton Airfield

Closest forecast is Portsmouth International at Pease Airport, 6.9 nm (12.8 km) N. Retrieved 2019/10/17 18:27 UTC (5 hours ago):

TAF KPSM 171722Z 1718/1818 23015G28KT P6SM -SHRA OVC025 FM172300 27012G22KT P6SM BKN040 FM181300 29014G21KT P6SM SCT050